Latest Weather Observations for Moorabbin Airport

IDV60801

Issued at 3:32 am EST Monday 25 September 2017 (issued every 30 minutes, with the page automatically refreshed every 10 minutes)

About weather observations | Map of weather stations | Latest weather observations for VIC | Other Formats
Station Details ID: 086077 Name: MOORABBIN AIRPORT Lat: -37.98 Lon: 145.10 Height: 12.1 m
Data from the previous 72 hours. | See also: Recent months at Moorabbin Airport
Date/Time
EST
Temp
°C
App
Temp
°C
Dew
Point
°C
Rel
Hum
%
Delta-T
°C
Wind Press
QNH
hPa
Press
MSL
hPa
Rain since
9am
mm
Dir  Spd
km/h
Gust
km/h
Spd
kts
Gust
kts
25/03:30am 12.9 8.4 7.1 68 2.8 WNW 20 33 11 18 1003.9 1003.9 0.0
25/03:00am 13.1 8.3 7.3 68 2.8 WNW 22 32 12 17 1003.9 1003.9 0.0
25/02:30am 13.0 8.5 7.0 67 2.9 NW 20 30 11 16 1003.7 1003.7 0.0
25/02:00am 13.6 9.0 6.7 63 3.3 WNW 20 32 11 17 1003.6 1003.6 0.0
25/01:30am 13.8 8.9 6.9 63 3.3 WNW 22 33 12 18 1003.6 1003.6 0.0
25/01:00am 14.0 9.1 6.8 62 3.5 WNW 22 33 12 18 1003.4 1003.4 0.0
25/12:30am 14.1 9.6 6.9 62 3.5 NW 20 30 11 16 1003.3 1003.3 0.0
25/12:00am 14.2 9.9 7.0 62 3.5 NW 19 30 10 16 1003.1 1003.1 0.0
 
Date/Time
EST
Temp
°C
App
Temp
°C
Dew
Point
°C
Rel
Hum
%
Delta-T
°C
Wind Press
QNH
hPa
Press
MSL
hPa
Rain since
9am
mm
Dir  Spd
km/h
Gust
km/h
Spd
kts
Gust
kts
24/11:30pm 14.3 9.8 7.1 62 3.5 NW 20 32 11 17 1002.9 1002.9 0.0
24/11:00pm 14.5 9.3 7.1 61 3.6 NW 24 33 13 18 1002.6 1002.6 0.0
24/10:30pm 14.6 10.2 7.2 61 3.6 NW 20 35 11 19 1002.4 1002.4 0.0
24/10:00pm 14.6 9.7 6.9 60 3.8 NW 22 32 12 17 1002.2 1002.2 0.0
24/09:30pm 14.7 9.8 6.8 59 3.8 NW 22 35 12 19 1001.7 1001.7 0.0
24/09:00pm 14.8 9.4 6.4 57 4.1 NW 24 39 13 21 1001.2 1001.2 0.0
24/08:36pm 15.4 8.4 5.9 53 4.6 NW 32 50 17 27 1000.5 1000.5 0.0
24/08:30pm 15.3 9.0 5.8 53 4.5 NW 28 43 15 23 1000.3 1000.3 0.0
24/08:07pm 15.9 8.2 5.2 49 5.1 NW 35 56 19 30 999.6 999.6 0.0
24/08:00pm 16.0 8.2 5.0 48 5.2 NW 35 52 19 28 999.5 999.5 0.0
24/07:35pm 16.5 9.6 4.5 45 5.6 NW 30 52 16 28 999.2 999.2 0.0
24/07:30pm 16.6 9.8 4.9 46 5.6 NW 30 46 16 25 999.1 999.1 0.0
24/07:17pm 16.2 9.7 4.9 47 5.3 NW 28 46 15 25 998.9 998.9 0.0
24/07:00pm 16.4 10.4 5.1 47 5.4 NW 26 43 14 23 998.5 998.5 0.0
24/06:30pm 16.7 10.2 4.7 45 5.7 NW 28 52 15 28 998.2 998.2 0.0
24/06:00pm 17.3 9.7 3.9 41 6.3 NW 33 59 18 32 997.7 997.7 0.0
24/05:30pm 17.9 10.3 4.1 40 6.5 NW 33 54 18 29 997.3 997.3 0.0
24/05:00pm 18.0 9.1 5.2 43 6.2 NW 41 69 22 37 996.6 996.6 0.0
24/04:30pm 17.7 9.4 5.9 46 5.8 NNW 39 61 21 33 996.8 996.8 0.0
24/04:00pm 17.4 9.0 5.7 46 5.7 NW 39 65 21 35 996.8 996.8 0.0
24/03:30pm 17.5 9.7 4.8 43 6.1 NNW 35 54 19 29 996.8 996.8 0.0
24/03:00pm 18.5 9.2 5.7 43 6.3 NNW 44 69 24 37 996.7 996.7 0.0
24/02:30pm 19.1 10.5 4.8 39 6.9 NNW 39 57 21 31 996.8 996.8 0.0
24/02:24pm 18.0 10.5 4.6 41 6.4 NW 33 56 18 30 996.9 996.9 0.0
24/02:00pm 18.2 11.0 5.1 42 6.4 NW 32 46 17 25 997.2 997.2 0.0
24/01:38pm 17.5 10.3 4.8 43 6.1 NNW 32 50 17 27 997.5 997.5 0.0
24/01:30pm 17.6 9.9 3.5 39 6.6 NNW 33 50 18 27 997.4 997.4 0.0
24/01:00pm 18.2 10.6 3.7 38 6.8 NW 33 52 18 28 998.2 998.2 0.0
24/12:30pm 17.4 10.4 4.0 41 6.3 NW 30 50 16 27 998.4 998.4 0.0
24/12:25pm 17.4 9.9 3.7 40 6.4 NW 32 50 17 27 998.3 998.3 0.0
24/12:00pm 17.7 9.7 3.9 40 6.5 NNW 35 50 19 27 998.4 998.4 0.0
24/11:30am 17.4 11.0 5.0 44 5.9 NNW 28 43 15 23 998.6 998.6 0.0
24/11:00am 16.2 9.9 5.8 50 5.0 NNW 28 41 15 22 998.9 998.9 0.0
24/10:30am 16.1 10.0 6.5 53 4.7 NW 28 39 15 21 999.3 999.3 0.0
24/10:00am 15.2 9.0 6.0 54 4.5 NW 28 43 15 23 999.4 999.4 0.0
24/09:30am 15.2 9.1 6.5 56 4.2 NW 28 46 15 25 999.7 999.7 0.0
24/09:00am 14.5 7.5 6.1 57 4.1 NW 32 50 17 27 999.4 999.4 0.4
24/08:44am 14.3 7.9 7.1 62 3.5 NW 30 52 16 28 999.3 999.3 0.4
24/08:30am 13.4 8.9 8.7 73 2.4 NW 22 35 12 19 999.3 999.3 0.4
24/08:00am 11.7 5.2 6.6 71 2.4 NW 30 41 16 22 999.2 999.2 0.0
24/07:46am 13.4 6.6 7.6 68 2.8 NNW 33 52 18 28 998.2 998.2 0.0
24/07:30am 14.1 7.5 7.9 66 3.1 NNW 32 48 17 26 997.6 997.6 0.0
24/07:27am 13.8 7.5 7.6 66 3.0 NNW 30 48 16 26 997.5 997.5 0.0
24/07:00am 12.9 6.9 6.9 67 2.9 N 28 37 15 20 997.7 997.7 0.0
24/06:30am 13.1 7.1 6.9 66 3.0 N 28 39 15 21 997.1 997.1 0.0
24/06:00am 13.3 7.6 6.6 64 3.2 N 26 35 14 19 997.7 997.7 0.0
24/05:30am 13.4 7.2 6.3 62 3.4 N 28 39 15 21 997.8 997.8 0.0
24/05:00am 13.3 7.9 6.2 62 3.4 N 24 30 13 16 998.4 998.4 0.0
24/04:30am 13.7 9.0 5.1 56 4.0 N 19 28 10 15 998.6 998.6 0.0
24/04:00am 13.9 9.2 5.0 55 4.2 NW 19 24 10 13 998.5 998.5 0.0
24/03:30am 14.3 9.0 5.1 54 4.3 NW 22 32 12 17 998.6 998.6 0.0
24/03:00am 14.4 9.1 5.2 54 4.4 NW 22 32 12 17 998.7 998.7 0.0
24/02:30am 14.7 9.6 5.8 55 4.2 NW 22 32 12 17 998.8 998.8 0.0
24/02:00am 14.7 10.6 6.0 56 4.2 NW 17 26 9 14 998.8 998.8 0.0
24/01:30am 14.7 10.9 6.0 56 4.2 NW 15 22 8 12 998.8 998.8 0.0
24/01:00am 15.3 10.7 6.6 56 4.3 NW 20 30 11 16 998.8 998.8 0.0
24/12:30am 14.8 12.2 7.8 63 3.5 NW 11 19 6 10 998.8 998.8 0.0
24/12:00am 15.3 12.9 8.5 64 3.5 NW 11 17 6 9 998.9 998.9 0.0
 
Date/Time
EST
Temp
°C
App
Temp
°C
Dew
Point
°C
Rel
Hum
%
Delta-T
°C
Wind Press
QNH
hPa
Press
MSL
hPa
Rain since
9am
mm
Dir  Spd
km/h
Gust
km/h
Spd
kts
Gust
kts
23/11:30pm 15.6 13.0 9.3 66 3.2 NW 13 22 7 12 998.8 998.8 0.0
23/11:00pm 15.4 13.4 10.0 70 2.8 NW 11 15 6 8 998.6 998.6 0.0
23/10:30pm 15.5 13.7 10.7 73 2.5 NW 11 19 6 10 998.6 998.6 0.0
23/10:00pm 14.5 13.2 10.1 75 2.3 N 7 9 4 5 998.8 998.8 0.0
23/09:30pm 15.3 13.8 10.5 73 2.5 NW 9 13 5 7 998.7 998.7 0.0
23/09:00pm 16.0 14.2 10.7 71 2.8 NW 11 17 6 9 998.7 998.7 0.0
23/08:30pm 15.7 13.8 10.5 71 2.7 NW 11 19 6 10 998.5 998.5 0.0
23/08:00pm 15.4 13.4 10.0 70 2.8 NW 11 13 6 7 998.3 998.3 0.0
23/07:30pm 15.7 12.9 10.0 69 3.0 W 15 22 8 12 998.1 998.1 0.0
23/07:00pm 15.6 13.3 10.4 71 2.8 W 13 19 7 10 997.5 997.5 0.0
23/06:30pm 14.6 12.2 10.2 75 2.3 WSW 13 20 7 11 997.1 997.1 0.0
23/06:00pm 14.7 10.6 10.1 74 2.4 SW 22 30 12 16 995.9 995.9 0.0
23/05:30pm 15.3 9.2 10.3 72 2.6 SW 33 46 18 25 994.2 994.2 0.0
23/05:25pm 15.5 10.5 11.1 75 2.3 SW 28 46 15 25 994.0 994.0 0.0
23/05:00pm 15.4 9.8 12.0 80 1.9 SW 33 48 18 26 993.1 993.1 0.0
23/04:34pm 16.9 11.9 11.0 68 3.2 SW 28 46 15 25 991.1 991.1 0.0
23/04:30pm 17.8 14.1 11.6 67 3.4 SW 22 41 12 22 990.6 990.6 0.0
23/04:00pm 22.1 20.8 11.2 50 6.1 WSW 9 15 5 8 989.2 989.2 0.0
23/03:30pm 22.3 18.9 11.4 50 6.1 WSW 20 28 11 15 989.2 989.2 0.0
23/03:08pm 24.2 19.3 8.6 37 8.4 WNW 24 33 13 18 989.0 989.0 0.0
23/03:00pm 29.3 22.4 7.2 25 12.0 NNW 33 56 18 30 988.5 988.5 0.0
23/02:38pm 29.7 21.7 5.7 22 12.6 NNW 37 59 20 32 988.5 988.5 0.0
23/02:30pm 29.4 21.9 6.1 23 12.3 NNW 35 50 19 27 988.7 988.7 0.0
23/02:00pm 29.1 21.1 5.9 23 12.3 NNW 37 54 20 29 989.1 989.1 0.0
23/01:30pm 29.0 19.6 4.5 21 12.6 NNW 43 61 23 33 989.3 989.3 0.0
23/01:00pm 28.4 20.7 5.3 23 12.1 NNW 35 54 19 29 990.5 990.5 0.0
23/12:49pm 28.5 21.4 5.4 23 12.0 NNW 32 52 17 28 990.7 990.7 0.0
23/12:30pm 28.4 21.8 4.0 21 12.4 NNW 28 44 15 24 991.1 991.1 0.0
23/12:19pm 26.7 24.5 9.5 34 9.5 WNW 11 19 6 10 991.6 991.6 0.0
23/12:00pm 21.5 17.1 7.3 40 7.4 SW 20 26 11 14 992.6 992.6 0.0
23/11:36am 22.3 16.4 3.9 30 8.9 NW 24 39 13 21 993.1 993.1 0.0
23/11:30am 28.6 22.9 4.8 22 12.2 N 24 35 13 19 992.4 992.4 0.0
23/11:21am 28.1 21.4 3.7 21 12.3 N 28 35 15 19 992.4 992.4 0.0
23/11:00am 24.4 23.0 8.8 37 8.5 SSE 6 11 3 6 993.5 993.5 0.0
23/10:30am 22.5 19.7 7.1 37 7.9 SSW 11 13 6 7 994.5 994.5 0.0
23/10:00am 20.8 18.3 6.7 40 7.2 SW 9 15 5 8 995.8 995.8 0.0
23/09:30am 17.3 13.8 7.4 52 5.0 WSW 15 28 8 15 996.6 996.6 0.0
23/09:29am 17.2 14.1 7.3 52 5.0 WSW 13 28 7 15 996.6 996.6 0.0
23/09:00am 22.3 17.0 2.9 28 9.3 N 20 30 11 16 996.7 996.7 0.0
23/08:30am 21.6 15.8 2.3 28 9.0 N 22 35 12 19 997.1 997.1 0.0
23/08:00am 21.2 14.6 2.0 28 9.0 N 26 33 14 18 997.3 997.3 0.0
23/07:30am 20.9 13.9 2.2 29 8.7 N 28 35 15 19 997.4 997.4 0.0
23/07:00am 20.7 13.7 2.0 29 8.7 N 28 35 15 19 997.7 997.7 0.0
23/06:30am 19.6 13.1 2.9 33 7.8 N 26 32 14 17 997.6 997.6 0.0
23/06:00am 20.1 14.0 2.5 31 8.2 N 24 32 13 17 997.8 997.8 0.0
23/05:30am 20.1 13.6 2.5 31 8.2 N 26 33 14 18 997.8 997.8 0.0
23/05:00am 19.5 13.9 3.2 34 7.7 N 22 30 12 16 997.9 997.9 0.0
23/04:30am 18.8 13.3 4.2 38 6.9 N 22 28 12 15 998.7 998.7 0.0
23/04:00am 18.5 13.1 4.7 40 6.7 N 22 28 12 15 999.2 999.2 0.0
23/03:30am 19.8 15.3 4.3 36 7.4 NNW 17 20 9 11 1000.4 1000.4 0.0
23/03:00am 18.6 15.1 5.5 42 6.4 N 13 19 7 10 1000.2 1000.2 0.0
23/02:30am 18.9 14.3 5.7 42 6.5 N 19 24 10 13 1000.5 1000.5 0.0
23/02:00am 17.3 14.0 6.2 48 5.5 N 13 17 7 9 1001.5 1001.5 0.0
23/01:30am 18.3 15.3 5.8 44 6.1 N 11 13 6 7 1002.2 1002.2 0.0
23/01:00am 18.4 15.5 6.3 45 6.0 N 11 13 6 7 1002.6 1002.6 0.0
23/12:30am 18.7 15.7 6.2 44 6.2 N 11 17 6 9 1002.9 1002.9 0.0
23/12:00am 19.3 14.8 6.8 44 6.3 NNE 20 28 11 15 1003.0 1003.0 0.0
 
Date/Time
EST
Temp
°C
App
Temp
°C
Dew
Point
°C
Rel
Hum
%
Delta-T
°C
Wind Press
QNH
hPa
Press
MSL
hPa
Rain since
9am
mm
Dir  Spd
km/h
Gust
km/h
Spd
kts
Gust
kts
22/11:30pm 18.8 15.3 7.3 47 5.8 N 15 19 8 10 1003.4 1003.4 0.0
22/11:00pm 17.7 14.6 7.4 51 5.2 N 13 15 7 8 1003.6 1003.6 0.0
22/10:30pm 17.4 14.9 8.0 54 4.8 N 11 15 6 8 1004.0 1004.0 0.0
22/10:00pm 16.0 12.7 8.0 59 4.0 N 15 17 8 9 1004.4 1004.4 0.0
22/09:30pm 17.2 13.4 7.5 53 4.9 N 17 19 9 10 1004.7 1004.7 0.0
22/09:00pm 19.1 14.4 7.8 48 5.8 N 22 28 12 15 1005.0 1005.0 0.0
22/08:30pm 18.8 15.2 8.2 50 5.5 N 17 20 9 11 1005.0 1005.0 0.0
22/08:00pm 19.2 15.6 8.5 50 5.6 N 17 22 9 12 1005.2 1005.2 0.0
22/07:30pm 19.7 15.7 8.4 48 5.9 N 19 26 10 14 1005.1 1005.1 0.0
22/07:00pm 20.0 16.0 8.4 47 6.1 N 19 24 10 13 1005.1 1005.1 0.0
22/06:30pm 21.0 17.4 8.3 44 6.6 N 17 22 9 12 1004.9 1004.9 0.0
22/06:00pm 22.3 18.1 8.1 40 7.5 N 20 26 11 14 1004.8 1004.8 0.0
22/05:30pm 23.1 18.4 7.6 37 8.1 N 22 28 12 15 1004.9 1004.9 0.0
22/05:00pm 23.4 17.6 7.9 37 8.2 N 28 35 15 19 1004.9 1004.9 0.0
22/04:30pm 24.1 19.3 8.9 38 8.2 N 24 32 13 17 1004.9 1004.9 0.0
22/04:00pm 23.4 18.2 8.7 39 7.9 N 26 33 14 18 1004.9 1004.9 0.0
22/03:30pm 23.2 17.8 8.1 38 8.0 N 26 37 14 20 1004.8 1004.8 0.0
22/03:00pm 23.6 18.0 7.3 35 8.5 N 26 35 14 19 1004.9 1004.9 0.0
22/02:30pm 23.3 18.3 8.2 38 8.0 N 24 35 13 19 1005.3 1005.3 0.0
22/02:00pm 23.4 18.3 7.5 36 8.3 N 24 30 13 16 1005.6 1005.6 0.0
22/01:30pm 23.7 19.0 7.8 36 8.4 N 22 33 12 18 1006.0 1006.0 0.0
22/01:00pm 23.5 19.5 9.1 40 7.8 N 20 28 11 15 1006.2 1006.2 0.0
22/12:30pm 22.3 18.7 9.8 45 6.8 NNE 19 30 10 16 1006.7 1006.7 0.0
22/12:00pm 21.4 19.0 8.7 44 6.7 N 11 17 6 9 1007.4 1007.4 0.0
22/11:30am 20.1 16.9 8.4 47 6.1 NNE 15 24 8 13 1007.9 1007.9 0.0
22/11:00am 18.7 17.8 10.5 59 4.4 N 6 11 3 6 1008.8 1008.8 0.0
22/10:30am 17.3 15.6 10.0 62 3.9 NE 9 15 5 8 1009.0 1009.0 0.0
22/10:00am 16.8 15.6 10.2 65 3.5 NE 7 11 4 6 1009.4 1009.4 0.0
22/09:30am 15.5 13.0 9.8 69 3.0 E 13 20 7 11 1009.4 1009.4 0.0
22/09:00am 15.4 14.2 10.2 71 2.7 E 7 13 4 7 1009.7 1009.7 0.0
22/08:30am 15.2 15.2 11.2 77 2.1 ESE 2 6 1 3 1009.8 1009.8 0.0
22/08:00am 13.7 12.7 11.0 84 1.4 ENE 7 11 4 6 1009.9 1009.9 0.0
22/07:30am 12.5 12.7 10.6 88 1.0 CALM 0 0 0 0 1009.9 1009.9 0.0
22/07:00am 11.2 11.1 9.3 88 1.0 CALM 0 6 0 3 1009.9 1009.9 0.0
22/06:30am 10.5 10.1 8.4 87 1.0 CALM 0 0 0 0 1009.7 1009.7 0.0
22/06:00am 11.5 11.4 9.4 87 1.1 CALM 0 0 0 0 1009.9 1009.9 0.0
22/05:30am 11.8 11.7 9.5 86 1.2 CALM 0 0 0 0 1009.9 1009.9 0.0
22/05:00am 11.7 11.6 9.4 86 1.2 CALM 0 0 0 0 1009.6 1009.6 0.0
22/04:30am 11.9 11.8 9.5 85 1.2 CALM 0 0 0 0 1009.4 1009.4 0.0
22/04:00am 11.8 10.6 9.4 85 1.2 E 6 7 3 4 1009.7 1009.7 0.0

Other Formats:

Comma delimited format used in spreadsheet applications
http://www.bom.gov.au/fwo/IDV60801/IDV60801.94870.axf

JavaScript Object Notation format (JSON) in row-major order
http://www.bom.gov.au/fwo/IDV60801/IDV60801.94870.json